Time;durP1;ratioP1;P1;durP2;ratioP2;P2;SDS_P1;SDS_P2;PMS_P1;PMS_P2;Temp;Humidity;BMP_temperature;BMP_pressure;BME280_temperature;BME280_humidity;BME280_pressure;Samples;Min_cycle;Max_cycle;Signal;HPM_P1;HPM_P2
2023/01/15 00:00:51;;;;;;;12.23;2.03;;;7.30;99.90;;;;;;5049798;28;20032;-76
2023/01/15 00:03:17;;;;;;;13.57;2.80;;;6.90;99.90;;;;;;5049191;28;20032;-76
2023/01/15 00:05:43;;;;;;;10.38;1.80;;;6.40;99.90;;;;;;5066287;28;20083;-76
2023/01/15 00:08:09;;;;;;;15.23;2.35;;;7.10;99.90;;;;;;5065456;28;20083;-76
2023/01/15 00:10:35;;;;;;;13.55;3.05;;;7.20;99.90;;;;;;5059998;28;20068;-76
2023/01/15 00:13:01;;;;;;;12.43;2.70;;;6.80;99.90;;;;;;5069539;28;20124;-77
2023/01/15 00:15:26;;;;;;;9.70;2.10;;;6.70;99.90;;;;;;5030851;28;20132;-76
2023/01/15 00:17:52;;;;;;;14.85;2.90;;;6.90;99.90;;;;;;5027715;28;20116;-76
2023/01/15 00:20:18;;;;;;;10.35;2.53;;;7.20;99.90;;;;;;5060301;28;20370;-75
2023/01/15 00:22:43;;;;;;;10.90;2.40;;;7.30;99.90;;;;;;5047875;28;20572;-75
2023/01/15 00:27:54;;;;;;;14.93;3.10;;;6.90;99.90;;;;;;5063359;28;20489;-76
2023/01/15 00:30:20;;;;;;;11.90;2.70;;;6.70;99.90;;;;;;5047081;28;20098;-76
2023/01/15 00:32:45;;;;;;;10.80;2.78;;;6.80;99.90;;;;;;5047773;28;20072;-75
2023/01/15 00:35:14;;;;;;;13.25;3.58;;;6.40;99.90;;;;;;5051527;28;20036;-76
2023/01/15 00:37:40;;;;;;;16.17;2.65;;;7.10;99.90;;;;;;5047355;28;20059;-76
2023/01/15 00:40:06;;;;;;;22.45;4.38;;;7.00;99.90;;;;;;5044078;28;20430;-76
2023/01/15 00:42:31;;;;;;;12.50;2.85;;;6.30;99.90;;;;;;5044066;28;20048;-75
2023/01/15 00:44:57;;;;;;;9.23;2.50;;;7.30;99.90;;;;;;5047807;28;20048;-75
2023/01/15 00:47:23;;;;;;;8.10;1.77;;;6.60;99.90;;;;;;5050031;28;20088;-76
2023/01/15 00:49:49;;;;;;;13.88;2.75;;;6.50;99.90;;;;;;5050046;28;20044;-75
2023/01/15 00:52:15;;;;;;;12.00;2.42;;;6.30;99.90;;;;;;5050796;28;20041;-75
2023/01/15 00:54:40;;;;;;;15.68;2.92;;;6.70;99.90;;;;;;5053218;28;20037;-75
2023/01/15 00:57:06;;;;;;;15.23;3.05;;;6.60;99.90;;;;;;5054447;28;20043;-75
2023/01/15 00:59:32;;;;;;;11.30;2.10;;;6.40;99.90;;;;;;5065779;28;20028;-76
2023/01/15 01:01:58;;;;;;;12.85;3.22;;;6.50;99.90;;;;;;5071899;28;20149;-75
2023/01/15 01:04:23;;;;;;;10.52;2.97;;;7.20;99.90;;;;;;5035026;28;20048;-75
2023/01/15 01:06:49;;;;;;;10.50;2.45;;;7.10;99.90;;;;;;5054835;28;20042;-75
2023/01/15 01:09:15;;;;;;;8.73;1.92;;;6.80;99.90;;;;;;5072058;28;20037;-74
2023/01/15 01:11:41;;;;;;;14.45;3.17;;;6.70;99.90;;;;;;5067330;28;20112;-75
2023/01/15 01:14:09;;;;;;;14.13;3.20;;;6.60;99.90;;;;;;5069393;28;20485;-75
2023/01/15 01:16:39;;;;;;;14.13;2.00;;;6.40;99.90;;;;;;5049827;28;20037;-75
2023/01/15 01:19:10;;;;;;;13.05;3.55;;;6.60;99.90;;;;;;5072586;28;20028;-74
2023/01/15 01:21:38;;;;;;;9.75;2.13;;;6.90;99.90;;;;;;5068379;28;20044;-75
2023/01/15 01:24:04;;;;;;;13.40;2.78;;;7.50;99.90;;;;;;5069828;28;20710;-75
2023/01/15 01:26:30;;;;;;;16.00;3.78;;;6.60;99.90;;;;;;5050560;28;20072;-75
2023/01/15 01:28:56;;;;;;;13.27;2.35;;;6.80;99.90;;;;;;5037399;28;20072;-75
2023/01/15 01:31:23;;;;;;;12.00;3.15;;;6.20;99.90;;;;;;5066042;28;20048;-75
2023/01/15 01:33:55;;;;;;;12.95;2.53;;;6.00;99.90;;;;;;5058827;28;20634;-75
2023/01/15 01:36:28;;;;;;;13.05;3.47;;;6.10;99.90;;;;;;5068167;28;20028;-75
2023/01/15 01:38:54;;;;;;;11.75;3.05;;;6.80;99.90;;;;;;5046494;28;20035;-75
2023/01/15 01:41:19;;;;;;;17.50;3.03;;;7.00;99.90;;;;;;5054218;28;20044;-75
2023/01/15 01:43:51;;;;;;;8.52;2.63;;;6.70;99.90;;;;;;5045827;28;20124;-75
2023/01/15 01:46:17;;;;;;;11.30;2.50;;;6.30;99.90;;;;;;5052198;28;20113;-75
2023/01/15 01:48:44;;;;;;;12.60;2.40;;;6.30;99.90;;;;;;5069964;28;20051;-75
2023/01/15 01:51:10;;;;;;;7.60;1.73;;;6.10;99.90;;;;;;5047489;28;20057;-75
2023/01/15 01:53:37;;;;;;;11.15;2.33;;;6.50;99.90;;;;;;5051246;28;20414;-75
2023/01/15 01:56:03;;;;;;;13.65;2.97;;;6.40;99.90;;;;;;5061989;28;20165;-74
2023/01/15 01:58:31;;;;;;;7.55;2.45;;;6.50;99.90;;;;;;5069019;28;20446;-75
2023/01/15 02:00:58;;;;;;;13.30;3.50;;;6.70;99.90;;;;;;5067419;28;20069;-75
2023/01/15 02:03:30;;;;;;;10.55;2.25;;;6.60;99.90;;;;;;5070355;28;20045;-75
2023/01/15 02:05:59;;;;;;;10.23;2.65;;;6.20;99.90;;;;;;5066712;28;20033;-75
2023/01/15 02:08:25;;;;;;;8.35;2.25;;;6.60;99.90;;;;;;5047054;28;20044;-75
2023/01/15 02:10:55;;;;;;;12.75;2.28;;;6.90;99.90;;;;;;5045203;28;20039;-75
2023/01/15 02:13:26;;;;;;;8.50;2.35;;;6.70;99.90;;;;;;5062768;28;20049;-75
2023/01/15 02:16:01;;;;;;;11.02;2.25;;;6.90;99.90;;;;;;5053665;28;20029;-75
2023/01/15 02:18:48;;;;;;;12.40;2.67;;;6.60;99.90;;;;;;5036838;28;20040;-75
2023/01/15 02:21:29;;;;;;;13.95;2.25;;;6.70;99.90;;;;;;5045938;28;20498;-75
2023/01/15 02:24:33;;;;;;;11.90;2.40;;;7.00;99.90;;;;;;5065076;28;20040;-75
2023/01/15 02:27:19;;;;;;;14.93;3.08;;;6.70;99.90;;;;;;4999550;28;20050;-75
2023/01/15 02:29:56;;;;;;;10.18;2.20;;;7.30;99.90;;;;;;5053426;28;20149;-75
2023/01/15 02:32:38;;;;;;;11.32;2.60;;;6.90;99.90;;;;;;5057218;28;20045;-75
2023/01/15 02:35:20;;;;;;;9.65;2.50;;;6.60;99.90;;;;;;5045499;28;20490;-75
2023/01/15 02:37:50;;;;;;;10.68;2.17;;;6.80;99.90;;;;;;5031056;28;20070;-75
2023/01/15 02:40:22;;;;;;;12.85;2.38;;;6.60;99.90;;;;;;5052686;28;20047;-75
2023/01/15 02:42:49;;;;;;;17.60;2.80;;;6.30;99.90;;;;;;5047773;28;20043;-75
2023/01/15 02:45:25;;;;;;;13.32;2.53;;;6.40;99.90;;;;;;5047826;28;20119;-75
2023/01/15 02:47:54;;;;;;;10.05;2.20;;;7.00;99.90;;;;;;5067043;28;20032;-75
2023/01/15 02:50:25;;;;;;;9.75;2.30;;;7.00;99.90;;;;;;5060625;28;20040;-76
2023/01/15 02:52:53;;;;;;;15.40;3.42;;;;;;;;;;5044930;28;20094;-75
2023/01/15 02:55:28;;;;;;;17.58;2.70;;;6.50;99.90;;;;;;5064652;28;20036;-76
2023/01/15 02:57:55;;;;;;;;;;;6.60;99.90;;;;;;5040318;28;20111;-74
2023/01/15 03:00:24;;;;;;;11.43;2.58;;;6.10;99.90;;;;;;5063408;28;20347;-74
2023/01/15 03:03:01;;;;;;;11.82;3.78;;;6.90;99.90;;;;;;5070188;28;20055;-74
2023/01/15 03:05:30;;;;;;;11.23;3.08;;;;;;;;;;5052676;28;20128;-74
2023/01/15 03:07:59;;;;;;;11.20;3.58;;;6.50;94.10;;;;;;5039835;28;20036;-74
2023/01/15 03:10:40;;;;;;;14.27;2.67;;;6.50;95.20;;;;;;5082224;28;20056;-75
2023/01/15 03:13:12;;;;;;;13.88;2.40;;;6.90;92.60;;;;;;5057603;28;20053;-74
2023/01/15 03:18:39;;;;;;;11.40;2.28;;;6.50;86.50;;;;;;5047586;28;20053;-75
2023/01/15 03:21:10;;;;;;;7.82;2.05;;;;;;;;;;5055189;28;20032;-74
2023/01/15 03:23:42;;;;;;;10.55;2.45;;;7.00;86.60;;;;;;5061065;28;20515;-74
2023/01/15 03:26:07;;;;;;;11.48;3.53;;;6.60;91.10;;;;;;5068923;28;20127;-74
2023/01/15 03:28:36;;;;;;;12.05;2.30;;;6.50;80.30;;;;;;5067820;28;20124;-74
2023/01/15 03:31:02;;;;;;;14.25;3.90;;;6.30;77.40;;;;;;5052446;28;20067;-74
2023/01/15 03:33:29;;;;;;;12.10;2.25;;;6.60;83.30;;;;;;5049436;28;20044;-74
2023/01/15 03:35:58;;;;;;;12.40;2.78;;;6.50;89.70;;;;;;5067864;28;20039;-74
2023/01/15 03:38:30;;;;;;;10.00;2.30;;;6.40;88.50;;;;;;5034969;28;20044;-74
2023/01/15 03:41:23;;;;;;;7.95;2.20;;;7.00;79.00;;;;;;5044440;28;20086;-74
2023/01/15 03:44:16;;;;;;;19.48;3.47;;;6.60;72.20;;;;;;5067964;28;20036;-74
2023/01/15 03:46:45;;;;;;;11.68;2.10;;;6.30;74.60;;;;;;5039787;28;20049;-74
2023/01/15 03:49:54;;;;;;;8.50;1.98;;;7.00;79.00;;;;;;5051123;28;20123;-74
2023/01/15 03:52:31;;;;;;;9.88;2.58;;;6.90;59.40;;;;;;5043377;28;20136;-74
2023/01/15 03:55:12;;;;;;;11.30;1.85;;;6.50;56.50;;;;;;5049747;28;20025;-74
2023/01/15 03:57:46;;;;;;;11.88;2.20;;;6.20;59.40;;;;;;5050652;28;20041;-74
2023/01/15 04:00:24;;;;;;;10.98;2.80;;;6.30;61.60;;;;;;5051758;28;20033;-74
2023/01/15 04:02:51;;;;;;;9.35;2.58;;;6.20;63.90;;;;;;5061654;28;20032;-74
2023/01/15 04:05:17;;;;;;;10.18;2.53;;;;;;;;;;5058642;28;20096;-74
2023/01/15 04:07:45;;;;;;;10.88;2.35;;;6.20;53.00;;;;;;5064843;28;20051;-75
2023/01/15 04:10:11;;;;;;;11.10;2.30;;;6.30;43.40;;;;;;5069432;28;20519;-74
2023/01/15 04:12:37;;;;;;;8.25;1.95;;;6.30;47.30;;;;;;5069632;28;20037;-75
2023/01/15 04:15:03;;;;;;;9.77;2.85;;;6.40;46.20;;;;;;5062532;28;20371;-75
2023/01/15 04:17:28;;;;;;;7.88;1.85;;;6.20;50.20;;;;;;5059554;28;20041;-75
2023/01/15 04:19:54;;;;;;;8.15;1.83;;;6.30;54.10;;;;;;5067393;28;20119;-75
2023/01/15 04:22:20;;;;;;;9.23;2.70;;;6.20;43.90;;;;;;5070297;28;20064;-74
2023/01/15 04:24:45;;;;;;;10.10;1.90;;;6.10;48.90;;;;;;5065803;28;20037;-75
2023/01/15 04:27:11;;;;;;;12.23;3.20;;;6.00;54.60;;;;;;5043649;28;20040;-75
2023/01/15 04:29:37;;;;;;;6.25;2.20;;;6.00;47.00;;;;;;5068134;28;20045;-75
2023/01/15 04:32:03;;;;;;;11.23;3.10;;;6.20;54.30;;;;;;5049447;28;20044;-75
2023/01/15 04:34:29;;;;;;;14.45;3.70;;;6.00;60.00;;;;;;5056286;28;20028;-76
2023/01/15 04:36:55;;;;;;;7.85;1.73;;;5.70;55.80;;;;;;5065462;28;20390;-75
2023/01/15 04:39:22;;;;;;;13.02;2.75;;;;;;;;;;5068446;28;20045;-75
2023/01/15 04:44:33;;;;;;;12.30;2.37;;;6.20;62.00;;;;;;5065685;28;20422;-76
2023/01/15 04:46:59;;;;;;;10.18;2.78;;;6.00;57.80;;;;;;5077348;28;20082;-75
2023/01/15 04:49:26;;;;;;;6.70;2.00;;;5.80;53.00;;;;;;5076698;28;20041;-75
2023/01/15 04:51:52;;;;;;;16.17;3.05;;;6.00;56.20;;;;;;5048999;28;20043;-75
2023/01/15 04:54:18;;;;;;;11.95;2.42;;;6.10;48.20;;;;;;5038712;28;20044;-75
2023/01/15 04:56:47;;;;;;;11.77;2.53;;;6.00;46.60;;;;;;5053630;28;20394;-76
2023/01/15 04:59:14;;;;;;;9.55;1.85;;;5.30;52.50;;;;;;5046302;28;20359;-75
2023/01/15 05:01:40;;;;;;;10.95;2.00;;;5.70;51.60;;;;;;5054924;28;20048;-75
2023/01/15 05:04:06;;;;;;;10.35;2.63;;;5.60;50.40;;;;;;5072959;28;20577;-75
2023/01/15 05:06:32;;;;;;;10.60;2.15;;;6.30;47.00;;;;;;5071934;28;20041;-75
2023/01/15 05:08:59;;;;;;;11.85;2.63;;;5.70;45.50;;;;;;5065685;28;20075;-75
2023/01/15 05:11:25;;;;;;;10.18;1.70;;;6.00;41.90;;;;;;5067820;28;20147;-75
2023/01/15 05:13:51;;;;;;;7.15;2.35;;;6.00;40.20;;;;;;5049705;28;20040;-76
2023/01/15 05:16:19;;;;;;;7.13;1.90;;;6.20;33.40;;;;;;5070247;28;20044;-76
2023/01/15 05:18:47;;;;;;;10.48;2.08;;;5.60;22.50;;;;;;5052881;28;20036;-76
2023/01/15 05:21:19;;;;;;;9.25;2.05;;;5.90;28.40;;;;;;5038820;28;20033;-77
2023/01/15 05:23:46;;;;;;;11.20;2.50;;;6.00;26.20;;;;;;5071366;28;20489;-76
2023/01/15 05:26:12;;;;;;;8.45;1.75;;;5.90;22.80;;;;;;5065601;28;20048;-76
2023/01/15 05:28:38;;;;;;;9.27;2.60;;;5.90;33.80;;;;;;5072217;28;20452;-77
2023/01/15 05:31:17;;;;;;;9.88;2.22;;;5.90;26.20;;;;;;5054957;28;20497;-77
2023/01/15 05:33:44;;;;;;;13.45;3.25;;;5.40;26.50;;;;;;5072568;28;20106;-77
2023/01/15 05:36:13;;;;;;;8.55;1.80;;;;;;;;;;5038433;28;20037;-77
2023/01/15 05:38:39;;;;;;;7.32;2.00;;;;;;;;;;5071463;28;20040;-76
2023/01/15 05:41:47;;;;;;;9.48;2.17;;;5.10;21.80;;;;;;5049663;28;20032;-77
2023/01/15 05:43:53;;;;;;;15.90;2.80;;;;;;;;;;5052967;28;20409;-76
2023/01/15 05:46:19;;;;;;;9.50;2.17;;;6.10;24.00;;;;;;5053719;28;20420;-77
2023/01/15 05:48:44;;;;;;;7.70;2.58;;;5.70;21.70;;;;;;5047206;28;20044;-77
2023/01/15 05:51:11;;;;;;;7.50;2.60;;;;;;;;;;5046034;28;20174;-77
2023/01/15 05:53:36;;;;;;;6.38;1.65;;;5.80;17.20;;;;;;5037423;28;20072;-77
2023/01/15 05:56:03;;;;;;;11.18;2.72;;;5.30;18.60;;;;;;5063400;28;20060;-77
2023/01/15 05:58:29;;;;;;;17.10;2.92;;;5.80;17.60;;;;;;5037411;28;20036;-77
2023/01/15 06:00:55;;;;;;;10.73;2.97;;;6.30;14.70;;;;;;5052618;28;20525;-77
2023/01/15 06:03:22;;;;;;;9.13;2.10;;;5.90;16.00;;;;;;5037728;28;20044;-77
2023/01/15 06:05:52;;;;;;;7.10;1.90;;;5.20;16.50;;;;;;5054467;28;20055;-78
2023/01/15 06:08:18;;;;;;;8.00;1.63;;;;;;;;;;5069842;28;20047;-77
2023/01/15 06:10:44;;;;;;;8.55;1.60;;;;;;;;;;5037574;28;20465;-77
2023/01/15 06:13:10;;;;;;;9.85;2.30;;;5.70;14.00;;;;;;5053624;28;20047;-77
2023/01/15 06:15:35;;;;;;;14.55;2.28;;;5.80;17.80;;;;;;5054340;28;20394;-77
2023/01/15 06:18:01;;;;;;;11.40;1.70;;;5.50;21.70;;;;;;5071497;28;20041;-77
2023/01/15 06:20:28;;;;;;;19.63;3.35;;;5.40;17.60;;;;;;5037295;28;20464;-78
2023/01/15 06:22:53;;;;;;;10.27;2.95;;;5.10;19.60;;;;;;5045765;28;20501;-77
2023/01/15 06:25:19;;;;;;;6.82;1.85;;;6.00;14.60;;;;;;5053737;28;20040;-77
2023/01/15 06:27:45;;;;;;;11.02;2.67;;;5.70;13.90;;;;;;5071424;28;20115;-78
2023/01/15 06:30:11;;;;;;;12.73;3.55;;;;;;;;;;5053768;28;20101;-77
2023/01/15 06:32:37;;;;;;;6.57;1.75;;;5.20;7.00;;;;;;5053666;28;20113;-77
2023/01/15 06:35:03;;;;;;;10.93;2.72;;;;;;;;;;5050612;28;20439;-78
2023/01/15 06:37:29;;;;;;;10.50;2.15;;;5.90;14.40;;;;;;5036003;28;20037;-78
2023/01/15 06:39:54;;;;;;;8.48;1.95;;;5.40;13.70;;;;;;5063941;28;20504;-78
2023/01/15 06:47:49;;;;;;;8.07;1.80;;;5.00;14.50;;;;;;5052750;28;20105;-77
2023/01/15 06:50:15;;;;;;;11.13;1.90;;;5.60;13.90;;;;;;5059733;28;20650;-77
2023/01/15 06:52:40;;;;;;;12.52;2.00;;;5.40;13.60;;;;;;5062193;28;20596;-78
2023/01/15 06:55:07;;;;;;;17.52;3.22;;;5.60;14.70;;;;;;5063822;28;20032;-78
2023/01/15 06:57:32;;;;;;;8.32;2.00;;;5.80;17.80;;;;;;5065961;28;20028;-78
2023/01/15 06:59:58;;;;;;;13.95;2.10;;;5.20;10.20;;;;;;5033059;28;20036;-78
2023/01/15 07:02:24;;;;;;;6.63;1.92;;;5.80;14.40;;;;;;5051346;28;20039;-78
2023/01/15 07:04:50;;;;;;;11.98;1.77;;;5.60;9.50;;;;;;5052663;28;20755;-78
2023/01/15 07:07:18;;;;;;;6.75;2.13;;;5.80;10.60;;;;;;5037809;28;20124;-78
2023/01/15 07:09:43;;;;;;;8.07;2.63;;;5.90;9.00;;;;;;5069154;28;20051;-78
2023/01/15 07:12:10;;;;;;;6.38;2.60;;;6.00;8.40;;;;;;5049711;28;20040;-80
2023/01/15 07:14:36;;;;;;;10.85;2.22;;;5.70;11.50;;;;;;5070915;28;20033;-77
2023/01/15 07:17:02;;;;;;;9.15;1.73;;;5.90;8.40;;;;;;5044908;28;20107;-76
2023/01/15 07:19:27;;;;;;;15.27;3.50;;;6.10;10.10;;;;;;5043776;28;20529;-77
2023/01/15 07:21:53;;;;;;;9.85;2.38;;;6.20;14.90;;;;;;5066075;28;20048;-77
2023/01/15 07:24:19;;;;;;;8.73;2.20;;;5.80;11.10;;;;;;5050816;28;20133;-77
2023/01/15 07:26:45;;;;;;;10.93;1.80;;;;;;;;;;5050627;28;20083;-77
2023/01/15 07:29:12;;;;;;;7.50;2.15;;;5.80;10.50;;;;;;5051834;28;20045;-77
2023/01/15 07:31:38;;;;;;;12.60;2.67;;;5.30;5.90;;;;;;5054248;28;20047;-77
2023/01/15 07:34:04;;;;;;;9.10;2.17;;;5.30;8.80;;;;;;5070281;28;20481;-77
2023/01/15 07:36:29;;;;;;;8.85;1.88;;;5.60;3.40;;;;;;5069197;28;20033;-77
2023/01/15 07:38:55;;;;;;;12.18;3.15;;;;;;;;;;5068740;28;20039;-77
2023/01/15 07:49:47;;;;;;;9.05;2.38;;;6.20;1.00;;;;;;5043864;28;20044;-78
2023/01/15 07:52:20;;;;;;;5.72;1.55;;;5.90;1.00;;;;;;5064017;28;20559;-78
2023/01/15 07:54:47;;;;;;;12.70;2.50;;;6.00;1.00;;;;;;5063816;28;20037;-78
2023/01/15 07:57:16;;;;;;;6.78;1.90;;;;;;;;;;5067315;28;20040;-78
2023/01/15 07:59:41;;;;;;;8.38;2.25;;;6.30;1.00;;;;;;5043393;28;20032;-79
2023/01/15 08:02:07;;;;;;;10.68;2.17;;;6.00;1.00;;;;;;5048978;28;20403;-79
2023/01/15 08:04:33;;;;;;;8.00;2.42;;;5.90;1.00;;;;;;5056791;28;20041;-79
2023/01/15 08:07:02;;;;;;;8.18;1.85;;;5.30;1.00;;;;;;5079385;28;20029;-80
2023/01/15 08:09:28;;;;;;;7.28;1.60;;;5.20;1.00;;;;;;5049207;28;20040;-81
2023/01/15 08:17:23;;;;;;;7.10;1.80;;;5.40;3.20;;;;;;5060883;28;20045;-81
2023/01/15 08:19:49;;;;;;;8.07;2.35;;;5.50;7.20;;;;;;5037016;28;20039;-80
2023/01/15 08:22:14;;;;;;;10.95;2.63;;;5.20;3.90;;;;;;5034882;28;20044;-81
2023/01/15 08:24:40;;;;;;;9.23;1.80;;;5.60;2.00;;;;;;5033660;28;20032;-80
2023/01/15 08:27:06;;;;;;;10.60;1.42;;;5.50;5.30;;;;;;5067432;28;20040;-81
2023/01/15 08:29:31;;;;;;;8.75;2.10;;;5.30;7.70;;;;;;5065469;28;20044;-81
2023/01/15 08:31:57;;;;;;;11.38;1.90;;;5.30;12.00;;;;;;5048999;28;20098;-81
2023/01/15 08:34:23;;;;;;;9.10;2.15;;;4.80;22.10;;;;;;5065594;28;20043;-80
2023/01/15 08:36:51;;;;;;;7.88;2.67;;;4.60;57.90;;;;;;5052074;28;20106;-78
2023/01/15 08:39:18;;;;;;;9.45;1.88;;;4.60;96.60;;;;;;5046772;28;20079;-78
2023/01/15 08:41:43;;;;;;;12.38;2.65;;;4.40;99.90;;;;;;5051508;28;20064;-77
2023/01/15 08:44:09;;;;;;;11.05;3.10;;;4.60;99.90;;;;;;5034953;28;20072;-76
2023/01/15 08:46:35;;;;;;;6.55;1.63;;;4.80;99.90;;;;;;5051398;28;20055;-76
2023/01/15 08:49:01;;;;;;;14.02;3.00;;;4.90;99.90;;;;;;5034649;28;20404;-76
2023/01/15 08:51:26;;;;;;;11.02;3.05;;;5.00;92.10;;;;;;5069415;28;20513;-75
2023/01/15 08:53:52;;;;;;;10.85;2.10;;;5.50;62.20;;;;;;5051287;28;20162;-75
2023/01/15 08:56:19;;;;;;;5.68;1.90;;;5.00;71.90;;;;;;5051715;28;20554;-75
2023/01/15 08:58:46;;;;;;;15.50;4.07;;;5.80;58.60;;;;;;5050401;28;20041;-75
2023/01/15 09:01:14;;;;;;;8.63;2.03;;;5.20;40.30;;;;;;5051320;28;20036;-75
2023/01/15 09:03:41;;;;;;;8.25;2.17;;;5.10;25.40;;;;;;5049778;28;20049;-76
2023/01/15 09:06:09;;;;;;;7.43;2.20;;;5.80;19.10;;;;;;5052047;28;20037;-75
2023/01/15 09:08:36;;;;;;;9.95;2.42;;;5.80;21.50;;;;;;5050505;28;20051;-75
2023/01/15 09:11:03;;;;;;;10.07;2.45;;;6.10;14.40;;;;;;5068162;28;20123;-76
2023/01/15 09:13:30;;;;;;;8.13;2.03;;;6.00;13.00;;;;;;5052401;28;20121;-77
2023/01/15 09:16:00;;;;;;;5.00;1.40;;;6.10;15.40;;;;;;5055508;28;20039;-76
2023/01/15 09:18:26;;;;;;;7.03;1.80;;;6.30;6.80;;;;;;5038139;28;20402;-77
2023/01/15 09:20:51;;;;;;;10.00;2.38;;;6.30;11.00;;;;;;5055070;28;20115;-77
2023/01/15 09:23:17;;;;;;;8.55;2.20;;;6.00;7.80;;;;;;5054822;28;20464;-77
2023/01/15 09:25:57;;;;;;;10.30;2.30;;;6.10;8.40;;;;;;5072906;28;20040;-77
2023/01/15 09:28:23;;;;;;;8.95;2.75;;;6.40;3.90;;;;;;5037921;28;20071;-77
2023/01/15 09:30:49;;;;;;;12.27;2.00;;;6.90;1.00;;;;;;5048435;28;20040;-77
2023/01/15 09:33:14;;;;;;;9.38;2.70;;;6.70;1.00;;;;;;5062823;28;20124;-77
2023/01/15 09:35:42;;;;;;;8.90;2.47;;;6.40;1.00;;;;;;5056073;28;20029;-77
2023/01/15 09:38:16;;;;;;;7.57;2.13;;;6.50;1.00;;;;;;5047289;28;20043;-77
2023/01/15 09:40:51;;;;;;;8.93;3.05;;;6.90;2.10;;;;;;5050392;28;20064;-77
2023/01/15 09:43:37;;;;;;;11.45;2.38;;;6.30;2.80;;;;;;5072006;28;20036;-76
2023/01/15 09:46:32;;;;;;;7.15;1.67;;;6.00;10.50;;;;;;5065692;28;20064;-74
2023/01/15 09:49:17;;;;;;;15.70;3.23;;;5.70;22.10;;;;;;5054107;28;20101;-70
2023/01/15 09:52:06;;;;;;;9.52;2.25;;;5.90;27.90;;;;;;5072034;28;20075;-69
2023/01/15 09:54:37;;;;;;;13.02;2.55;;;6.10;30.10;;;;;;5053944;28;20055;-70
2023/01/15 09:57:05;;;;;;;13.18;2.85;;;;;;;;;;5071451;28;20032;-69
2023/01/15 09:59:37;;;;;;;10.82;2.17;;;6.20;26.80;;;;;;5053203;28;20055;-69
2023/01/15 10:02:18;;;;;;;13.45;2.20;;;6.60;15.80;;;;;;5053947;28;20032;-69
2023/01/15 10:04:50;;;;;;;10.98;2.17;;;6.30;17.70;;;;;;5053470;28;20515;-70
2023/01/15 10:07:28;;;;;;;12.70;3.13;;;6.50;12.70;;;;;;5058825;28;20044;-69
2023/01/15 10:10:01;;;;;;;8.25;2.33;;;6.10;5.40;;;;;;5066173;28;20043;-70
2023/01/15 10:12:36;;;;;;;6.63;1.98;;;6.90;6.80;;;;;;5071921;28;20063;-69
2023/01/15 10:15:21;;;;;;;11.32;2.42;;;6.50;5.90;;;;;;5071748;28;20094;-69
2023/01/15 10:17:52;;;;;;;11.10;2.42;;;6.20;5.80;;;;;;5071228;28;20044;-68
2023/01/15 10:20:47;;;;;;;14.43;2.25;;;6.20;9.30;;;;;;5071712;28;20040;-68
2023/01/15 10:23:33;;;;;;;10.82;2.58;;;6.10;11.10;;;;;;5039845;28;20067;-68
2023/01/15 10:26:15;;;;;;;7.93;1.95;;;6.10;12.80;;;;;;5044534;28;20480;-69
2023/01/15 10:28:57;;;;;;;9.75;2.13;;;6.30;11.10;;;;;;5031086;28;20040;-68
2023/01/15 10:31:35;;;;;;;11.52;2.42;;;6.10;6.70;;;;;;5063177;28;20040;-70
2023/01/15 10:34:36;;;;;;;10.25;2.25;;;7.10;1.00;;;;;;5039593;28;20040;-70
2023/01/15 10:37:13;;;;;;;10.95;2.20;;;6.50;1.00;;;;;;5049704;28;20032;-70
2023/01/15 10:39:41;;;;;;;9.05;1.90;;;6.70;1.00;;;;;;5076389;22;20490;-65
2023/01/15 10:42:13;;;;;;;7.30;2.05;;;7.10;1.00;;;;;;5064211;28;20490;-65
2023/01/15 10:44:50;;;;;;;7.32;1.52;;;7.50;1.00;;;;;;5049912;28;20115;-67
2023/01/15 10:47:21;;;;;;;7.75;1.80;;;7.60;1.00;;;;;;5048689;28;20068;-66
2023/01/15 10:49:48;;;;;;;10.68;1.83;;;7.50;1.00;;;;;;5066275;28;20482;-64
2023/01/15 10:52:36;;;;;;;16.45;3.88;;;6.90;1.00;;;;;;5068621;28;20076;-65
2023/01/15 10:55:28;;;;;;;5.93;1.60;;;7.20;1.00;;;;;;5049720;28;20486;-65
2023/01/15 10:58:08;;;;;;;8.90;2.40;;;7.30;1.00;;;;;;5068386;28;20032;-66
2023/01/15 11:00:36;;;;;;;7.13;1.98;;;7.20;1.00;;;;;;5063626;28;20032;-65
2023/01/15 11:03:10;;;;;;;13.00;2.88;;;6.60;1.00;;;;;;5045714;28;20397;-65
2023/01/15 11:05:37;;;;;;;10.23;2.92;;;6.30;2.50;;;;;;5058141;28;20399;-66
2023/01/15 11:08:10;;;;;;;10.15;2.63;;;6.40;1.00;;;;;;5050402;28;20401;-64
2023/01/15 11:10:37;;;;;;;10.88;2.00;;;6.60;2.00;;;;;;5058088;28;20036;-64
2023/01/15 11:21:50;;;;;;;8.45;2.00;;;6.10;16.10;;;;;;5065255;28;20077;-65
2023/01/15 11:24:17;;;;;;;11.20;3.30;;;6.30;29.30;;;;;;5045189;28;20090;-65
2023/01/15 11:26:49;;;;;;;10.88;2.03;;;6.00;65.10;;;;;;5040896;28;20047;-66
2023/01/15 11:29:31;;;;;;;9.13;2.28;;;6.20;95.50;;;;;;5041381;28;20060;-63
2023/01/15 11:31:57;;;;;;;8.63;2.28;;;5.60;98.40;;;;;;5063956;28;20048;-62
2023/01/15 11:34:23;;;;;;;9.95;2.00;;;5.90;99.90;;;;;;5065779;28;20509;-63
2023/01/15 11:37:00;;;;;;;13.40;2.88;;;5.90;99.90;;;;;;5041392;28;20453;-62
2023/01/15 11:39:29;;;;;;;13.85;2.72;;;5.90;94.10;;;;;;5061927;28;20041;-62
2023/01/15 11:50:44;;;;;;;6.35;2.40;;;;;;;;;;5063957;28;20119;-62
2023/01/15 11:53:18;;;;;;;11.88;1.80;;;;;;;;;;5058046;28;20041;-63
2023/01/15 11:55:44;;;;;;;;;;;;;;;;;;5044442;28;20542;-61
2023/01/15 11:58:10;;;;;;;9.45;2.17;;;;;;;;;;5058704;28;20015;-61
2023/01/15 12:00:39;;;;;;;6.55;1.77;;;;;;;;;;5057702;28;20094;-61
2023/01/15 12:03:19;;;;;;;12.02;2.10;;;;;;;;;;5057522;28;20513;-60
2023/01/15 12:05:47;;;;;;;10.27;2.22;;;;;;;;;;5061102;28;20068;-60
2023/01/15 12:08:36;;;;;;;8.88;2.10;;;;;;;;;;5056561;28;20053;-59
2023/01/15 12:11:17;;;;;;;9.48;2.42;;;;;;;;;;5047735;28;20044;-61
2023/01/15 12:13:43;;;;;;;10.90;3.10;;;;;;;;;;5047541;28;20044;-61
2023/01/15 12:16:27;;;;;;;6.82;1.98;;;;;;;;;;5056079;28;20502;-61
2023/01/15 12:18:54;;;;;;;7.35;1.92;;;;;;;;;;5039241;28;20072;-60
2023/01/15 12:21:28;;;;;;;10.10;1.85;;;;;;;;;;5039552;28;20072;-59
2023/01/15 12:23:54;;;;;;;5.75;1.75;;;;;;;;;;5056463;28;20036;-61
2023/01/15 12:26:25;;;;;;;14.13;2.40;;;;;;;;;;5061298;28;20052;-61
2023/01/15 12:29:02;;;;;;;4.63;1.77;;;;;;;;;;5059145;28;20040;-61
2023/01/15 12:31:35;;;;;;;16.80;3.90;;;;;;;;;;5060286;28;20127;-60
2023/01/15 12:34:14;;;;;;;14.95;2.38;;;;;;;;;;5067945;28;20063;-60
2023/01/15 12:37:04;;;;;;;9.77;1.88;;;;;;;;;;5056489;28;20098;-60
2023/01/15 12:39:32;;;;;;;10.32;2.10;;;;;;;;;;5049903;28;20456;-60
2023/01/15 12:45:07;;;;;;;10.43;4.40;;;;;;;;;;5060823;28;20044;-60
2023/01/15 12:47:49;;;;;;;10.55;2.25;;;;;;;;;;5058770;28;20044;-61
2023/01/15 12:50:15;;;;;;;12.88;2.58;;;;;;;;;;5070497;28;20120;-61
2023/01/15 12:52:43;;;;;;;12.48;3.08;;;;;;;;;;5069682;28;20036;-60
2023/01/15 12:55:18;;;;;;;5.97;1.75;;;;;;;;;;5049917;28;20029;-61
2023/01/15 12:57:52;;;;;;;15.68;4.20;;;5.80;99.90;;;;;;5065193;28;20048;-60
2023/01/15 13:00:24;;;;;;;7.93;1.98;;;5.70;99.90;;;;;;5051849;28;20041;-61
2023/01/15 13:03:05;;;;;;;12.70;2.85;;;;;;;;;;5068385;28;20490;-62
2023/01/15 13:05:35;;;;;;;7.07;1.33;;;;;;;;;;5069554;28;20040;-62
2023/01/15 13:08:19;;;;;;;5.30;1.25;;;;;;;;;;5066463;28;20524;-62
2023/01/15 13:10:48;;;;;;;5.55;1.52;;;;;;;;;;5065748;28;20032;-62
2023/01/15 13:13:25;;;;;;;6.03;1.30;;;;;;;;;;5063275;28;20077;-62
2023/01/15 13:15:57;;;;;;;3.63;1.20;;;;;;;;;;5065500;28;20097;-61
2023/01/15 13:18:31;;;;;;;5.75;1.05;;;;;;;;;;5062932;28;20045;-61
2023/01/15 13:20:57;;;;;;;8.40;1.42;;;;;;;;;;5064948;28;20036;-61
2023/01/15 13:23:42;;;;;;;5.55;1.17;;;;;;;;;;5064265;28;20037;-62
2023/01/15 13:26:14;;;;;;;4.95;1.00;;;;;;;;;;5071907;28;20129;-61
2023/01/15 13:28:44;;;;;;;7.05;1.42;;;;;;;;;;5051516;28;20052;-61
2023/01/15 13:31:16;;;;;;;8.02;2.08;;;;;;;;;;5071692;28;20080;-61
2023/01/15 13:33:45;;;;;;;7.63;1.50;;;;;;;;;;5053855;28;20052;-61
2023/01/15 13:36:15;;;;;;;10.32;1.65;;;;;;;;;;5072025;28;20043;-62
2023/01/15 13:38:42;;;;;;;10.05;2.10;;;;;;;;;;5070439;28;20040;-62
2023/01/15 13:41:08;;;;;;;8.73;2.03;;;;;;;;;;5063526;28;20406;-61
2023/01/15 13:43:39;;;;;;;10.73;1.80;;;;;;;;;;5065411;28;20036;-63
2023/01/15 13:46:07;;;;;;;10.95;3.42;;;;;;;;;;5067254;28;20044;-61
2023/01/15 13:48:35;;;;;;;13.07;3.10;;;;;;;;;;5065863;28;20044;-60
2023/01/15 13:51:04;;;;;;;8.70;3.35;;;;;;;;;;5070122;28;20036;-61
2023/01/15 13:53:30;;;;;;;14.02;3.60;;;;;;;;;;5067784;28;20040;-62
2023/01/15 13:56:04;;;;;;;7.03;2.42;;;;;;;;;;5062148;28;20037;-62
2023/01/15 13:58:32;;;;;;;21.70;4.60;;;6.00;99.90;;;;;;5067997;28;20456;-62
2023/01/15 14:01:05;;;;;;;7.07;2.58;;;;;;;;;;5061515;28;20056;-62
2023/01/15 14:03:33;;;;;;;16.17;3.33;;;6.20;99.90;;;;;;5062781;28;20110;-62
2023/01/15 14:06:04;;;;;;;12.30;2.95;;;5.70;99.90;;;;;;5061778;28;20215;-60
2023/01/15 14:08:43;;;;;;;17.35;3.50;;;;;;;;;;5052288;28;20059;-61
2023/01/15 14:11:36;;;;;;;12.30;3.10;;;5.90;99.90;;;;;;5061642;28;20256;-60
2023/01/15 14:14:21;;;;;;;12.90;2.80;;;;;;;;;;5066795;28;20501;-60
2023/01/15 14:16:56;;;;;;;14.38;4.82;;;;;;;;;;5066326;28;20037;-61